• Join FlightAware (Why Join?)
  • Login
  • US Flag 
10:30AM EDT


 

Airport Tracker/Info


-or-


 

Live Flight TrackerFlight Track Log ✈ AAL532 ✈ 01-May-2013 ✈ KORD - KDCA

Flight Track Log - Related Links

Times and Time Zones

All times are in EDT time to prevent confusion due to time zone crossing. See the AAL532 flight status page for this flight to view local times or setup timezone preferences in your user account.

Time Position Orientation Groundspeed Altitude Reporting Facility
EDT Latitude Longitude Course Direction KTS MPH feet Rate Location/Type
11:17PM 41.9833 -87.8167 85° East 210 242 3,400  Level Chicago TRACON
11:18PM 41.9582 -87.4651 96° East  Level FlightAware Approximate
11:19PM 41.9468 -87.3207 95° East  Level FlightAware Approximate
11:19PM 41.9764 -87.5697 92° East 295 339 11,600  Level Chicago Center
11:20PM 41.9364 -87.1763 95° East  Level FlightAware Approximate
11:20PM 41.9686 -87.4358 94° East 352 405 15,100  Level Chicago Center
11:21PM 41.9333 -87.0314 90° East  Level FlightAware Approximate
11:21PM 41.9547 -87.2964 98° East 374 430 18,100  Level Chicago Center
11:22PM 41.9381 -86.8920 85° East  Level FlightAware Approximate
11:22PM 41.9400 -87.1478 98° East 399 459 21,100  Level Chicago Center
11:23PM 41.9231 -86.9953 98° East 412 474 23,800 2,400 Climbing Chicago Center
11:24PM 41.9056 -86.8342 98° East 433 498 26,000 2,040 Climbing Chicago Center
11:25PM 41.8883 -86.6764 98° East 445 512 28,000 1,800 Climbing Chicago Center
11:26PM 41.8697 -86.5058 98° East 463 533 29,700 1,740 Climbing Chicago Center
11:27PM 41.8503 -86.3319 98° East 470 541 31,600 1,620 Climbing Chicago Center
11:28PM 41.8258 -86.1211 99° East 479 551 33,000 660 Climbing Chicago Center
11:29PM 41.8069 -85.9453 98° East 476 548 33,000  Level Chicago Center
11:30PM 41.7864 -85.7694 99° East 477 549 33,000  Level Chicago Center
11:31PM 41.7658 -85.5953 99° East 474 545 33,000  Level Chicago Center
11:32PM 41.7461 -85.4178 98° East 471 542 33,000 -960 Level Chicago Center
11:33PM 41.7203 -85.2392 101° East 479 551 31,100 -1,020 Descending Chicago Center
11:34PM 41.6653 -85.0822 115° Southeast 464 534 31,000 -60 Descending Chicago Center
11:35PM 41.6100 -84.9272 115° Southeast 460 529 31,000  Level Chicago Center
11:36PM 41.5536 -84.7719 116° Southeast 463 533 31,000  Level Chicago Center
11:37PM 41.4983 -84.6194 116° Southeast 459 528 31,000  Level Chicago Center
11:38PM 41.4425 -84.4669 116° Southeast 458 527 31,000  Level Chicago Center
11:39PM 41.3869 -84.3164 116° Southeast 454 522 31,000  Level Chicago Center
11:40PM 41.3311 -84.1658 116° Southeast 454 522 31,000  Level Chicago Center
11:41PM 41.2767 -84.0178 116° Southeast 452 520 31,000  Level Cleveland Center
11:42PM 41.2128 -83.8542 117° Southeast 452 520 31,000  Level Cleveland Center
11:43PM 41.1583 -83.7108 117° Southeast 447 514 31,000  Level Cleveland Center
11:44PM 41.1019 -83.5619 117° Southeast 447 514 31,000  Level Cleveland Center
11:45PM 41.0492 -83.4164 116° Southeast 436 502 31,000 -60 Level Cleveland Center
11:46PM 40.9983 -83.2822 117° Southeast 436 502 30,900  Descending Cleveland Center
11:47PM 40.9331 -83.1228 118° Southeast 445 512 31,000  Climbing Cleveland Center
11:48PM 40.8781 -82.9750 116° Southeast 445 512 31,000  Level Cleveland Center
11:51PM 40.7608 -82.6653 116° Southeast 445 512 31,000  Level Indianapolis Center
11:52PM 40.7044 -82.5214 117° Southeast 442 509 31,000  Level Indianapolis Center
11:53PM 40.6461 -82.3750 118° Southeast 448 516 31,000  Level Indianapolis Center
11:54PM 40.5889 -82.2292 117° Southeast 448 516 31,000  Level Indianapolis Center
11:55PM 40.5297 -82.0817 118° Southeast 454 522 31,000  Level Indianapolis Center
11:56PM 40.4714 -81.9350 118° Southeast 453 521 31,000  Level Indianapolis Center
11:57PM 40.4128 -81.7883 118° Southeast 453 521 31,000  Level Indianapolis Center
11:58PM 40.3378 -81.6128 119° Southeast 451 519 31,000  Level Cleveland Center
11:59PM 40.2764 -81.4647 118° Southeast 451 519 31,000  Level Cleveland Center
12:00AM 40.2128 -81.3253 121° Southeast 451 519 31,000  Level Cleveland Center
12:02AM 40.0939 -81.0661 121° Southeast 452 520 31,000  Level Indianapolis Center
12:03AM 40.0303 -80.9247 120° Southeast 451 519 31,000  Level Indianapolis Center
12:04AM 39.9669 -80.7844 120° Southeast 448 516 31,000  Level Indianapolis Center
12:05AM 39.9019 -80.6397 120° Southeast 447 514 31,000  Level Indianapolis Center
12:06AM 39.8372 -80.4989 121° Southeast 449 517 31,000  Level Indianapolis Center
12:06AM 39.8217 -80.4600 118° Southeast 437 503 31,000  Level Washington Center
12:07AM 39.7583 -80.3208 121° Southeast 442 509 31,000  Level Washington Center
12:08AM 39.6931 -80.1817 121° Southeast 447 514 31,000  Level Washington Center
12:09AM 39.6272 -80.0428 122° Southeast 447 514 31,000  Level Washington Center
12:10AM 39.5700 -79.8964 117° Southeast 447 514 31,000  Level Washington Center
12:11AM 39.5189 -79.7508 114° Southeast 447 514 31,000  Level Washington Center
12:12AM 39.4656 -79.6053 115° Southeast 447 514 31,000  Level Washington Center
12:13AM 39.4100 -79.4597 116° Southeast 452 520 31,000 -240 Level Washington Center
12:14AM 39.3583 -79.3119 114° Southeast 452 520 30,600 -1,620 Descending Washington Center
12:15AM 39.2983 -79.1614 117° Southeast 440 506 27,900 -2,640 Descending Washington Center
12:16AM 39.2500 -79.0303 115° Southeast 427 491 25,400 -2,520 Descending Washington Center
12:17AM 39.2161 -78.9003 109° East 398 458 22,900 -2,040 Descending Washington Center
12:18AM 39.2050 -78.7656 96° East 380 437 21,300 -1,500 Descending Washington Center
12:19AM 39.1919 -78.6339 97° East 373 429 19,900 -1,380 Descending Washington Center
12:20AM 39.1783 -78.5047 98° East 373 429 18,600 -1,260 Descending Washington Center
12:21AM 39.1647 -78.3783 98° East 373 429 17,400 -960 Descending Washington Center
12:22AM 39.1383 -78.2569 106° East 361 415 16,700 -1,020 Descending Washington Center
12:23AM 39.1075 -78.1381 108° East 349 402 15,300 -1,440 Descending Washington Center
12:24AM 39.0728 -78.0033 108° East 344 396 13,700 -1,440 Descending Washington Center
12:25AM 39.0436 -77.8900 108° East 334 384 12,500 -1,200 Descending Washington Center
12:26AM 39.0164 -77.7850 108° East 316 364 11,300 -1,020 Descending Washington Center
12:27AM 38.9889 -77.6853 110° East 306 352 10,500 -840 Descending Washington Center
12:28AM 38.9656 -77.5939 108° East 284 327 9,700 -840 Descending Washington Center
12:29AM 38.9500 -77.5667 126° Southeast 250 288 9,400 -960 Descending Potomac TRACON
12:30AM 38.9500 -77.4833 90° East 215 247 8,500 -1,260 Descending Potomac TRACON
12:31AM 38.9833 -77.4167 57° Northeast 229 264 6,900 -1,800 Descending Potomac TRACON
12:32AM 38.9833 -77.3333 90° East 218 251 5,000 -1,500 Descending Potomac TRACON
12:33AM 38.9833 -77.2667 90° East 201 231 3,900 -900 Descending Potomac TRACON
12:34AM 38.9667 -77.2000 108° East 165 190 3,200 -720 Descending Potomac TRACON